• Join FlightAware (Why Join?)
  • Login
  • US Flag 
05:51AM EDT


 

Airport Tracker/Info


-or-


 

Live Flight TrackerFlight Track Log ✈ ASQ4976 ✈ 09-May-2013 ✈ KALB - KATL

Flight Track Log - Related Links

Times and Time Zones

All times are in EDT time to prevent confusion due to time zone crossing. See the ASQ4976 flight status page for this flight to view local times or setup timezone preferences in your user account.

Time Position Orientation Groundspeed Altitude Reporting Facility
EDT Latitude Longitude Course Direction KTS MPH feet Rate Location/Type
12:44PM 42.7111 -73.8106 186° South 153 176 1,900  Level Boston Center
12:45PM 42.7186 -73.8756 279° West 223 257 4,400 2,220 Climbing Boston Center
12:45PM 42.7244 -73.8928 295° West 220 253 5,100 2,460 Climbing Boston Center
12:46PM 42.7569 -73.9728 299° West 225 259 7,900 2,220 Climbing Boston Center
12:47PM 42.7850 -74.0583 294° West 238 274 9,600 2,220 Climbing Boston Center
12:48PM 42.7789 -74.1742 266° West 264 304 12,400 2,160 Climbing Boston Center
12:49PM 42.7692 -74.2728 262° West 293 337 14,400 1,800 Climbing Boston Center
12:50PM 42.6828 -74.3211 202° Southwest 274 315 16,400 1,920 Climbing Boston Center
12:51PM 42.5858 -74.2619 156° South 298 343 18,300 1,800 Climbing Boston Center
12:52PM 42.4972 -74.2056 155° Southeast 341 392 20,100 1,620 Climbing Boston Center
12:53PM 42.4000 -74.1439 155° Southeast 364 419 21,600 1,500 Climbing Boston Center
12:54PM 42.2922 -74.1128 168° South 387 445 23,100 1,500 Climbing Boston Center
12:55PM 42.1817 -74.1128 180° South 393 452 24,700 1,620 Climbing Boston Center
12:56PM 42.0692 -74.1125 180° South 398 458 26,400 1,800 Climbing Boston Center
12:57PM 41.9644 -74.1489 194° South 403 464 28,300 1,740 Climbing Boston Center
12:58PM 41.8617 -74.1961 199° South 397 457 29,900 1,260 Climbing Boston Center
12:59PM 41.7631 -74.2381 198° South 390 449 30,900 720 Climbing Boston Center
01:02PM 41.5072 -74.3500 198° South 411 473 32,400 600 Climbing New York Center
01:03PM 41.3933 -74.3994 198° South 422 486 33,000 720 Climbing New York Center
01:04PM 41.2603 -74.4528 197° South 451 519 33,900 840 Climbing New York Center
01:05PM 41.1458 -74.5156 202° Southwest 451 519 34,700 780 Climbing New York Center
01:06PM 41.0531 -74.6206 220° Southwest 442 509 35,500 600 Climbing New York Center
01:07PM 40.9597 -74.7306 222° Southwest 448 516 36,000 300 Climbing New York Center
01:08PM 40.8625 -74.8372 220° Southwest 448 516 36,100 300 Climbing New York Center
01:09PM 40.7689 -74.9469 222° Southwest 454 522 36,600 480 Climbing New York Center
01:10PM 40.6736 -75.0531 220° Southwest 454 522 37,100 480 Climbing New York Center
01:11PM 40.5756 -75.1647 221° Southwest 454 522 37,600 420 Climbing New York Center
01:12PM 40.4819 -75.2758 222° Southwest 454 522 38,000 180 Climbing New York Center
01:13PM 40.3981 -75.3958 227° Southwest 454 522 38,000  Level New York Center
01:14PM 40.3178 -75.5239 231° Southwest 454 522 38,000  Level New York Center
01:15PM 40.2400 -75.6464 230° Southwest 454 522 38,000  Level New York Center
01:16PM 40.1617 -75.7711 231° Southwest 454 522 38,000  Level New York Center
01:17PM 40.0836 -75.8931 230° Southwest 454 522 38,000  Level New York Center
01:18PM 40.0053 -76.0122 229° Southwest 454 522 38,000  Level New York Center
01:19PM 39.9247 -76.1358 230° Southwest 454 522 38,000  Level New York Center
01:20PM 39.8489 -76.2439 228° Southwest 460 529 38,000  Level New York Center
01:21PM 39.7722 -76.3675 231° Southwest 460 529 38,000  Level New York Center
01:22PM 39.6914 -76.4853 228° Southwest 455 524 38,000  Level New York Center
01:23PM 39.5967 -76.6283 229° Southwest 438 504 38,000  Level Washington Center
01:24PM 39.5164 -76.7508 230° Southwest 438 504 38,000  Level Washington Center
01:25PM 39.4358 -76.8733 230° Southwest 443 510 38,000  Level Washington Center
01:26PM 39.3575 -76.9928 230° Southwest 453 521 38,000  Level Washington Center
01:27PM 39.2769 -77.1144 229° Southwest 458 527 38,000  Level Washington Center
01:28PM 39.1961 -77.2361 229° Southwest 458 527 38,000  Level Washington Center
01:29PM 39.1131 -77.3572 229° Southwest 463 533 38,000  Level Washington Center
01:30PM 39.0214 -77.4911 229° Southwest 463 533 38,000  Level Washington Center
01:31PM 38.9403 -77.6147 230° Southwest 458 527 38,000  Level Washington Center
01:32PM 38.8653 -77.7219 228° Southwest 458 527 38,000  Level Washington Center
01:33PM 38.7711 -77.8603 229° Southwest 458 527 38,000  Level Washington Center
01:34PM 38.6894 -77.9800 229° Southwest 458 527 38,000  Level Washington Center
01:35PM 38.6078 -78.0997 229° Southwest 451 519 38,000  Level Washington Center
01:36PM 38.5242 -78.2189 228° Southwest 451 519 38,000  Level Washington Center
01:37PM 38.4419 -78.3406 229° Southwest 451 519 38,000  Level Washington Center
01:38PM 38.3600 -78.4594 229° Southwest 451 519 38,000  Level Washington Center
01:39PM 38.2781 -78.5781 229° Southwest 451 519 38,000  Level Washington Center
01:40PM 38.2064 -78.6833 229° Southwest 442 509 38,000  Level Washington Center
01:41PM 38.1242 -78.7989 228° Southwest 442 509 38,000  Level Washington Center
01:42PM 38.0417 -78.9167 228° Southwest 448 516 38,000  Level Washington Center
01:43PM 37.9506 -79.0417 227° Southwest 453 521 38,100  Climbing Washington Center
01:44PM 37.8678 -79.1589 228° Southwest 453 521 38,000 -60 Descending Washington Center
01:45PM 37.7853 -79.2731 228° Southwest 453 521 38,000  Level Washington Center
01:46PM 37.7089 -79.3769 227° Southwest 453 521 38,000  Level Washington Center
01:47PM 37.6172 -79.5036 228° Southwest 458 527 38,000  Level Washington Center
01:48PM 37.5408 -79.6097 228° Southwest 451 519 38,000  Level Washington Center
01:49PM 37.4489 -79.7356 227° Southwest 456 525 38,000  Level Washington Center
01:50PM 37.3611 -79.8536 227° Southwest 461 531 38,000  Level Washington Center
01:51PM 37.2844 -79.9564 227° Southwest 454 522 38,000  Level Washington Center
01:53PM 37.0953 -80.2086 227° Southwest 448 516 38,000  Level Atlanta Center
01:54PM 37.0072 -80.3244 226° Southwest 453 521 38,000  Level Atlanta Center
01:55PM 36.9311 -80.4294 228° Southwest 453 521 38,000  Level Atlanta Center
01:56PM 36.8489 -80.5394 227° Southwest 453 521 38,000  Level Atlanta Center
01:57PM 36.7683 -80.6442 226° Southwest 440 506 38,000  Level Atlanta Center
01:58PM 36.6942 -80.7483 228° Southwest 408 470 38,000  Level Atlanta Center
01:59PM 36.6156 -80.8522 227° Southwest 411 473 38,000  Level Atlanta Center
02:00PM 36.5389 -80.9536 227° Southwest 404 465 38,000  Level Atlanta Center
02:01PM 36.4581 -81.0600 227° Southwest 414 476 38,000  Level Atlanta Center
02:02PM 36.3750 -81.1689 227° Southwest 414 476 38,000  Level Atlanta Center
02:03PM 36.2942 -81.2797 228° Southwest 430 495 38,000  Level Atlanta Center
02:04PM 36.2050 -81.3936 226° Southwest 435 501 38,000  Level Atlanta Center
02:05PM 36.1197 -81.5069 227° Southwest 435 501 38,000  Level Atlanta Center
02:06PM 36.0344 -81.6175 226° Southwest 435 501 38,000  Level Atlanta Center
02:07PM 35.9489 -81.7250 226° Southwest 440 506 38,000  Level Atlanta Center
02:08PM 35.8633 -81.8378 227° Southwest 440 506 38,000 -300 Level Atlanta Center
02:09PM 35.7925 -81.9600 234° Southwest 440 506 37,500 -780 Descending Atlanta Center
02:10PM 35.7342 -82.0919 241° Southwest 446 513 36,500 -780 Descending Atlanta Center
02:11PM 35.6778 -82.2261 243° Southwest 440 506 36,000 -300 Descending Atlanta Center
02:12PM 35.6233 -82.3553 243° Southwest 435 501 35,900 -600 Descending Atlanta Center
02:13PM 35.5644 -82.4892 242° Southwest 440 506 34,900 -960 Descending Atlanta Center
02:14PM 35.5014 -82.6231 240° Southwest 446 513 34,000 -480 Descending Atlanta Center
02:15PM 35.4403 -82.7567 241° Southwest 451 519 34,000  Level Atlanta Center
02:16PM 35.3433 -82.8625 222° Southwest 458 527 34,000 -420 Level Atlanta Center
02:17PM 35.2400 -82.9631 218° Southwest 463 533 33,200 -900 Descending Atlanta Center
02:18PM 35.1406 -83.0608 219° Southwest 470 541 32,200 -1,020 Descending Atlanta Center
02:19PM 35.0369 -83.1586 218° Southwest 470 541 31,200 -1,020 Descending Atlanta Center
02:20PM 34.9394 -83.2508 218° Southwest 470 541 30,200 -1,080 Descending Atlanta Center
02:21PM 34.8378 -83.3478 218° Southwest 463 533 29,100 -1,800 Descending Atlanta Center
02:22PM 34.7486 -83.4522 224° Southwest 463 533 26,600 -2,520 Descending Atlanta Center
02:24PM 34.5806 -83.6578 225° Southwest 445 512 21,600 -2,520 Descending Atlanta Center
02:25PM 34.4972 -83.7614 226° Southwest 439 505 19,200 -2,220 Descending Atlanta Center
02:26PM 34.4014 -83.8322 211° Southwest 413 475 17,200 -2,160 Descending Atlanta Center
02:27PM 34.3033 -83.8931 207° Southwest 402 463 14,900 -2,100 Descending Atlanta Center
02:28PM 34.2136 -83.9508 208° Southwest 378 435 13,000 -1,140 Descending Atlanta Center
02:29PM 34.1367 -84.0086 212° Southwest 343 395 12,700 -900 Descending Atlanta Center
02:30PM 34.0614 -84.0714 215° Southwest 315 362 11,200 -1,620 Descending Atlanta Center
02:31PM 33.9925 -84.1089 204° Southwest 296 341 9,500 -1,680 Descending Atlanta Center
02:31PM 33.9667 -84.1167 194° South 289 333 9,000 -1,680 Descending Atlanta TRACON
02:32PM 33.8833 -84.1167 180° South 271 312 7,300 -1,620 Descending Atlanta TRACON
02:33PM 33.8403 -84.1239 188° South 272 313 6,300 -780 Descending Atlanta Center
02:34PM 33.7692 -84.1339 187° South 265 305 6,000 -720 Descending Atlanta Center
02:35PM 33.7067 -84.1536 195° South 243 280 4,900 -1,140 Descending Atlanta Center
02:35PM 33.6833 -84.1667 205° Southwest 226 260 4,500 -780 Descending Atlanta TRACON
02:36PM 33.6667 -84.2167 248° West 209 241 4,000 -720 Descending Atlanta TRACON
02:37PM 33.6500 -84.2667 248° West 178 205 3,200 -900 Descending Atlanta TRACON
02:38PM 33.6500 -84.3333 270° West 167 192 2,300 -840 Descending Atlanta TRACON
02:39PM 33.6500 -84.3833 270° West 139 160 1,600 -720 Descending Atlanta TRACON
02:41PM 33.6367 -84.4279 270° West  Level Estimated
02:48PM 33.6367 -84.4279 103° East  Level Estimated
02:49PM 33.6367 -84.4279 103° East  Level Estimated